sensor_id;sensor_type;location;lat;lon;timestamp;P1;durP1;ratioP1;P2;durP2;ratioP2
36709;SDS011;22694;51.040;3.684;2023-04-06T00:00:50;7.18;;;6.00;;
36709;SDS011;22694;51.040;3.684;2023-04-06T00:03:15;10.07;;;6.10;;
36709;SDS011;22694;51.040;3.684;2023-04-06T00:05:41;8.13;;;6.25;;
36709;SDS011;22694;51.040;3.684;2023-04-06T00:08:07;7.63;;;6.07;;
36709;SDS011;22694;51.040;3.684;2023-04-06T00:10:33;7.18;;;6.18;;
36709;SDS011;22694;51.040;3.684;2023-04-06T00:12:58;7.53;;;6.28;;
36709;SDS011;22694;51.040;3.684;2023-04-06T00:15:25;9.13;;;6.20;;
36709;SDS011;22694;51.040;3.684;2023-04-06T00:17:50;7.38;;;6.13;;
36709;SDS011;22694;51.040;3.684;2023-04-06T00:20:16;6.43;;;5.82;;
36709;SDS011;22694;51.040;3.684;2023-04-06T00:22:42;9.27;;;6.82;;
36709;SDS011;22694;51.040;3.684;2023-04-06T00:25:08;7.40;;;5.55;;
36709;SDS011;22694;51.040;3.684;2023-04-06T00:27:35;6.80;;;5.75;;
36709;SDS011;22694;51.040;3.684;2023-04-06T00:30:01;8.27;;;6.95;;
36709;SDS011;22694;51.040;3.684;2023-04-06T00:32:28;8.70;;;6.35;;
36709;SDS011;22694;51.040;3.684;2023-04-06T00:34:54;7.32;;;6.35;;
36709;SDS011;22694;51.040;3.684;2023-04-06T00:37:19;8.45;;;6.50;;
36709;SDS011;22694;51.040;3.684;2023-04-06T00:39:45;7.93;;;6.43;;
36709;SDS011;22694;51.040;3.684;2023-04-06T00:42:11;8.30;;;6.63;;
36709;SDS011;22694;51.040;3.684;2023-04-06T00:44:40;7.88;;;6.60;;
36709;SDS011;22694;51.040;3.684;2023-04-06T00:47:07;8.13;;;6.13;;
36709;SDS011;22694;51.040;3.684;2023-04-06T00:49:33;6.65;;;5.95;;
36709;SDS011;22694;51.040;3.684;2023-04-06T00:51:59;6.95;;;6.25;;
36709;SDS011;22694;51.040;3.684;2023-04-06T00:54:26;6.68;;;6.07;;
36709;SDS011;22694;51.040;3.684;2023-04-06T00:56:52;7.03;;;6.32;;
36709;SDS011;22694;51.040;3.684;2023-04-06T00:59:18;7.57;;;6.35;;
36709;SDS011;22694;51.040;3.684;2023-04-06T01:01:43;7.45;;;6.22;;
36709;SDS011;22694;51.040;3.684;2023-04-06T01:04:09;10.00;;;6.78;;
36709;SDS011;22694;51.040;3.684;2023-04-06T01:06:35;7.13;;;5.97;;
36709;SDS011;22694;51.040;3.684;2023-04-06T01:09:01;8.65;;;7.10;;
36709;SDS011;22694;51.040;3.684;2023-04-06T01:11:26;6.97;;;6.25;;
36709;SDS011;22694;51.040;3.684;2023-04-06T01:13:52;8.23;;;6.60;;
36709;SDS011;22694;51.040;3.684;2023-04-06T01:16:18;7.95;;;6.82;;
36709;SDS011;22694;51.040;3.684;2023-04-06T01:18:44;7.10;;;6.40;;
36709;SDS011;22694;51.040;3.684;2023-04-06T01:21:09;8.38;;;6.60;;
36709;SDS011;22694;51.040;3.684;2023-04-06T01:23:42;7.78;;;6.75;;
36709;SDS011;22694;51.040;3.684;2023-04-06T01:26:09;6.85;;;6.10;;
36709;SDS011;22694;51.040;3.684;2023-04-06T01:28:35;7.78;;;6.90;;
36709;SDS011;22694;51.040;3.684;2023-04-06T01:31:02;7.72;;;6.93;;
36709;SDS011;22694;51.040;3.684;2023-04-06T01:33:28;8.38;;;7.47;;
36709;SDS011;22694;51.040;3.684;2023-04-06T01:35:54;7.57;;;6.72;;
36709;SDS011;22694;51.040;3.684;2023-04-06T01:38:20;8.93;;;7.30;;
36709;SDS011;22694;51.040;3.684;2023-04-06T01:40:46;7.78;;;6.93;;
36709;SDS011;22694;51.040;3.684;2023-04-06T01:43:11;8.70;;;6.70;;
36709;SDS011;22694;51.040;3.684;2023-04-06T01:45:37;8.43;;;7.20;;
36709;SDS011;22694;51.040;3.684;2023-04-06T01:48:03;8.85;;;7.05;;
36709;SDS011;22694;51.040;3.684;2023-04-06T01:50:29;8.40;;;7.43;;
36709;SDS011;22694;51.040;3.684;2023-04-06T01:52:55;9.35;;;7.47;;
36709;SDS011;22694;51.040;3.684;2023-04-06T01:55:20;9.27;;;7.93;;
36709;SDS011;22694;51.040;3.684;2023-04-06T01:57:46;9.20;;;7.28;;
36709;SDS011;22694;51.040;3.684;2023-04-06T02:00:12;8.57;;;7.68;;
36709;SDS011;22694;51.040;3.684;2023-04-06T02:02:38;9.77;;;8.40;;
36709;SDS011;22694;51.040;3.684;2023-04-06T02:05:04;10.50;;;7.90;;
36709;SDS011;22694;51.040;3.684;2023-04-06T02:07:30;9.13;;;7.50;;
36709;SDS011;22694;51.040;3.684;2023-04-06T02:09:56;9.23;;;7.75;;
36709;SDS011;22694;51.040;3.684;2023-04-06T02:12:21;8.75;;;7.85;;
36709;SDS011;22694;51.040;3.684;2023-04-06T02:14:47;10.05;;;8.35;;
36709;SDS011;22694;51.040;3.684;2023-04-06T02:17:12;9.27;;;8.38;;
36709;SDS011;22694;51.040;3.684;2023-04-06T02:19:38;9.98;;;8.38;;
36709;SDS011;22694;51.040;3.684;2023-04-06T02:22:04;11.35;;;8.65;;
36709;SDS011;22694;51.040;3.684;2023-04-06T02:24:30;9.18;;;8.02;;
36709;SDS011;22694;51.040;3.684;2023-04-06T02:26:55;8.68;;;7.45;;
36709;SDS011;22694;51.040;3.684;2023-04-06T02:29:21;9.95;;;8.15;;
36709;SDS011;22694;51.040;3.684;2023-04-06T02:31:46;10.50;;;9.40;;
36709;SDS011;22694;51.040;3.684;2023-04-06T02:34:12;11.20;;;8.65;;
36709;SDS011;22694;51.040;3.684;2023-04-06T02:36:42;9.20;;;8.15;;
36709;SDS011;22694;51.040;3.684;2023-04-06T02:39:09;11.10;;;9.48;;
36709;SDS011;22694;51.040;3.684;2023-04-06T02:41:35;10.90;;;9.63;;
36709;SDS011;22694;51.040;3.684;2023-04-06T02:44:01;11.75;;;8.98;;
36709;SDS011;22694;51.040;3.684;2023-04-06T02:46:27;10.88;;;8.95;;
36709;SDS011;22694;51.040;3.684;2023-04-06T02:48:53;11.15;;;9.68;;
36709;SDS011;22694;51.040;3.684;2023-04-06T02:51:19;10.73;;;9.40;;
36709;SDS011;22694;51.040;3.684;2023-04-06T02:53:45;10.57;;;9.10;;
36709;SDS011;22694;51.040;3.684;2023-04-06T02:56:11;10.82;;;9.65;;
36709;SDS011;22694;51.040;3.684;2023-04-06T02:58:37;10.75;;;9.57;;
36709;SDS011;22694;51.040;3.684;2023-04-06T03:01:02;11.13;;;9.85;;
36709;SDS011;22694;51.040;3.684;2023-04-06T03:03:28;11.95;;;9.68;;
36709;SDS011;22694;51.040;3.684;2023-04-06T03:05:55;11.82;;;9.48;;
36709;SDS011;22694;51.040;3.684;2023-04-06T03:08:23;11.18;;;9.60;;
36709;SDS011;22694;51.040;3.684;2023-04-06T03:10:49;11.52;;;10.13;;
36709;SDS011;22694;51.040;3.684;2023-04-06T03:13:15;11.77;;;9.75;;
36709;SDS011;22694;51.040;3.684;2023-04-06T03:15:41;12.80;;;10.40;;
36709;SDS011;22694;51.040;3.684;2023-04-06T03:18:07;12.30;;;10.55;;
36709;SDS011;22694;51.040;3.684;2023-04-06T03:20:32;10.80;;;9.18;;
36709;SDS011;22694;51.040;3.684;2023-04-06T03:22:58;11.48;;;10.30;;
36709;SDS011;22694;51.040;3.684;2023-04-06T03:25:24;12.40;;;10.20;;
36709;SDS011;22694;51.040;3.684;2023-04-06T03:27:49;13.35;;;10.75;;
36709;SDS011;22694;51.040;3.684;2023-04-06T03:30:15;12.43;;;10.73;;
36709;SDS011;22694;51.040;3.684;2023-04-06T03:32:42;14.02;;;11.05;;
36709;SDS011;22694;51.040;3.684;2023-04-06T03:35:09;14.60;;;10.98;;
36709;SDS011;22694;51.040;3.684;2023-04-06T03:37:35;11.63;;;10.43;;
36709;SDS011;22694;51.040;3.684;2023-04-06T03:40:01;13.13;;;10.30;;
36709;SDS011;22694;51.040;3.684;2023-04-06T03:42:26;14.85;;;11.68;;
36709;SDS011;22694;51.040;3.684;2023-04-06T03:44:52;13.70;;;11.52;;
36709;SDS011;22694;51.040;3.684;2023-04-06T03:47:18;13.20;;;10.25;;
36709;SDS011;22694;51.040;3.684;2023-04-06T03:49:43;12.88;;;11.30;;
36709;SDS011;22694;51.040;3.684;2023-04-06T03:52:09;14.82;;;11.07;;
36709;SDS011;22694;51.040;3.684;2023-04-06T03:54:35;14.25;;;11.15;;
36709;SDS011;22694;51.040;3.684;2023-04-06T03:57:01;13.55;;;11.10;;
36709;SDS011;22694;51.040;3.684;2023-04-06T03:59:27;13.15;;;10.77;;
36709;SDS011;22694;51.040;3.684;2023-04-06T04:01:52;13.77;;;11.02;;
36709;SDS011;22694;51.040;3.684;2023-04-06T04:04:18;12.13;;;10.38;;
36709;SDS011;22694;51.040;3.684;2023-04-06T04:06:44;17.65;;;12.15;;
36709;SDS011;22694;51.040;3.684;2023-04-06T04:09:10;13.35;;;11.25;;
36709;SDS011;22694;51.040;3.684;2023-04-06T04:11:35;12.63;;;10.77;;
36709;SDS011;22694;51.040;3.684;2023-04-06T04:14:01;13.13;;;11.07;;
36709;SDS011;22694;51.040;3.684;2023-04-06T04:16:27;15.18;;;11.32;;
36709;SDS011;22694;51.040;3.684;2023-04-06T04:18:52;13.23;;;10.70;;
36709;SDS011;22694;51.040;3.684;2023-04-06T04:21:18;16.02;;;11.70;;
36709;SDS011;22694;51.040;3.684;2023-04-06T04:23:44;14.25;;;11.30;;
36709;SDS011;22694;51.040;3.684;2023-04-06T04:26:09;14.32;;;10.95;;
36709;SDS011;22694;51.040;3.684;2023-04-06T04:28:35;15.25;;;11.38;;
36709;SDS011;22694;51.040;3.684;2023-04-06T04:31:01;14.02;;;11.65;;
36709;SDS011;22694;51.040;3.684;2023-04-06T04:33:26;15.35;;;11.55;;
36709;SDS011;22694;51.040;3.684;2023-04-06T04:35:52;13.85;;;11.15;;
36709;SDS011;22694;51.040;3.684;2023-04-06T04:38:18;16.23;;;10.85;;
36709;SDS011;22694;51.040;3.684;2023-04-06T04:40:44;13.32;;;10.98;;
36709;SDS011;22694;51.040;3.684;2023-04-06T04:43:10;12.52;;;10.25;;
36709;SDS011;22694;51.040;3.684;2023-04-06T04:45:35;12.68;;;9.90;;
36709;SDS011;22694;51.040;3.684;2023-04-06T04:48:03;13.32;;;9.63;;
36709;SDS011;22694;51.040;3.684;2023-04-06T04:50:30;13.30;;;10.55;;
36709;SDS011;22694;51.040;3.684;2023-04-06T04:52:55;15.27;;;11.15;;
36709;SDS011;22694;51.040;3.684;2023-04-06T04:55:21;15.63;;;11.05;;
36709;SDS011;22694;51.040;3.684;2023-04-06T04:57:47;16.27;;;10.85;;
36709;SDS011;22694;51.040;3.684;2023-04-06T05:00:12;14.13;;;11.25;;
36709;SDS011;22694;51.040;3.684;2023-04-06T05:02:38;12.15;;;10.10;;
36709;SDS011;22694;51.040;3.684;2023-04-06T05:05:04;14.43;;;10.38;;
36709;SDS011;22694;51.040;3.684;2023-04-06T05:07:30;12.77;;;10.90;;
36709;SDS011;22694;51.040;3.684;2023-04-06T05:09:56;11.85;;;9.98;;
36709;SDS011;22694;51.040;3.684;2023-04-06T05:12:21;12.45;;;10.00;;
36709;SDS011;22694;51.040;3.684;2023-04-06T05:14:47;12.63;;;9.95;;
36709;SDS011;22694;51.040;3.684;2023-04-06T05:17:13;13.38;;;10.77;;
36709;SDS011;22694;51.040;3.684;2023-04-06T05:19:39;13.35;;;10.30;;
36709;SDS011;22694;51.040;3.684;2023-04-06T05:22:04;13.10;;;10.80;;
36709;SDS011;22694;51.040;3.684;2023-04-06T05:24:30;12.10;;;9.80;;
36709;SDS011;22694;51.040;3.684;2023-04-06T05:26:56;13.50;;;10.15;;
36709;SDS011;22694;51.040;3.684;2023-04-06T05:29:21;12.52;;;9.98;;
36709;SDS011;22694;51.040;3.684;2023-04-06T05:31:47;12.02;;;9.98;;
36709;SDS011;22694;51.040;3.684;2023-04-06T05:34:13;11.10;;;9.00;;
36709;SDS011;22694;51.040;3.684;2023-04-06T05:36:39;12.48;;;10.15;;
36709;SDS011;22694;51.040;3.684;2023-04-06T05:39:05;12.52;;;9.80;;
36709;SDS011;22694;51.040;3.684;2023-04-06T05:41:32;13.15;;;9.63;;
36709;SDS011;22694;51.040;3.684;2023-04-06T05:43:57;10.70;;;9.38;;
36709;SDS011;22694;51.040;3.684;2023-04-06T05:46:23;13.77;;;9.13;;
36709;SDS011;22694;51.040;3.684;2023-04-06T05:48:49;11.50;;;9.43;;
36709;SDS011;22694;51.040;3.684;2023-04-06T05:51:17;11.65;;;9.18;;
36709;SDS011;22694;51.040;3.684;2023-04-06T05:53:43;10.43;;;8.93;;
36709;SDS011;22694;51.040;3.684;2023-04-06T05:56:08;10.88;;;8.55;;
36709;SDS011;22694;51.040;3.684;2023-04-06T05:58:34;11.52;;;9.45;;
36709;SDS011;22694;51.040;3.684;2023-04-06T06:01:00;12.68;;;9.85;;
36709;SDS011;22694;51.040;3.684;2023-04-06T06:03:27;12.00;;;9.55;;
36709;SDS011;22694;51.040;3.684;2023-04-06T06:05:53;10.98;;;9.60;;
36709;SDS011;22694;51.040;3.684;2023-04-06T06:08:24;10.38;;;8.85;;
36709;SDS011;22694;51.040;3.684;2023-04-06T06:10:50;10.30;;;8.93;;
36709;SDS011;22694;51.040;3.684;2023-04-06T06:13:15;10.85;;;8.43;;
36709;SDS011;22694;51.040;3.684;2023-04-06T06:15:41;11.85;;;8.73;;
36709;SDS011;22694;51.040;3.684;2023-04-06T06:18:07;10.30;;;9.05;;
36709;SDS011;22694;51.040;3.684;2023-04-06T06:20:32;9.15;;;8.13;;
36709;SDS011;22694;51.040;3.684;2023-04-06T06:22:58;11.63;;;8.02;;
36709;SDS011;22694;51.040;3.684;2023-04-06T06:25:24;9.30;;;8.00;;
36709;SDS011;22694;51.040;3.684;2023-04-06T06:27:49;11.50;;;8.48;;
36709;SDS011;22694;51.040;3.684;2023-04-06T06:30:15;10.38;;;8.43;;
36709;SDS011;22694;51.040;3.684;2023-04-06T06:32:41;9.18;;;7.97;;
36709;SDS011;22694;51.040;3.684;2023-04-06T06:35:07;9.75;;;7.47;;
36709;SDS011;22694;51.040;3.684;2023-04-06T06:37:33;10.32;;;7.65;;
36709;SDS011;22694;51.040;3.684;2023-04-06T06:39:58;9.30;;;7.35;;
36709;SDS011;22694;51.040;3.684;2023-04-06T06:42:24;9.18;;;7.25;;
36709;SDS011;22694;51.040;3.684;2023-04-06T06:44:50;9.23;;;7.38;;
36709;SDS011;22694;51.040;3.684;2023-04-06T06:47:16;8.65;;;6.45;;
36709;SDS011;22694;51.040;3.684;2023-04-06T06:49:42;9.52;;;7.70;;
36709;SDS011;22694;51.040;3.684;2023-04-06T06:52:07;8.15;;;6.85;;
36709;SDS011;22694;51.040;3.684;2023-04-06T06:54:33;11.00;;;7.13;;
36709;SDS011;22694;51.040;3.684;2023-04-06T06:56:59;8.45;;;7.00;;
36709;SDS011;22694;51.040;3.684;2023-04-06T06:59:25;8.48;;;6.75;;
36709;SDS011;22694;51.040;3.684;2023-04-06T07:01:51;8.45;;;6.65;;
36709;SDS011;22694;51.040;3.684;2023-04-06T07:04:16;8.68;;;6.32;;
36709;SDS011;22694;51.040;3.684;2023-04-06T07:06:42;8.38;;;6.38;;
36709;SDS011;22694;51.040;3.684;2023-04-06T07:09:08;7.93;;;6.15;;
36709;SDS011;22694;51.040;3.684;2023-04-06T07:11:34;7.13;;;5.97;;
36709;SDS011;22694;51.040;3.684;2023-04-06T07:14:00;8.23;;;5.95;;
36709;SDS011;22694;51.040;3.684;2023-04-06T07:16:25;6.28;;;5.68;;
36709;SDS011;22694;51.040;3.684;2023-04-06T07:18:51;6.72;;;5.57;;
36709;SDS011;22694;51.040;3.684;2023-04-06T07:21:17;7.65;;;5.60;;
36709;SDS011;22694;51.040;3.684;2023-04-06T07:23:42;6.95;;;5.65;;
36709;SDS011;22694;51.040;3.684;2023-04-06T07:26:08;7.60;;;5.63;;
36709;SDS011;22694;51.040;3.684;2023-04-06T07:28:34;7.20;;;5.03;;
36709;SDS011;22694;51.040;3.684;2023-04-06T07:30:59;6.07;;;5.15;;
36709;SDS011;22694;51.040;3.684;2023-04-06T07:33:25;7.00;;;4.82;;
36709;SDS011;22694;51.040;3.684;2023-04-06T07:35:54;8.00;;;5.75;;
36709;SDS011;22694;51.040;3.684;2023-04-06T07:38:20;5.30;;;4.55;;
36709;SDS011;22694;51.040;3.684;2023-04-06T07:40:46;5.18;;;4.53;;
36709;SDS011;22694;51.040;3.684;2023-04-06T07:43:12;6.03;;;4.38;;
36709;SDS011;22694;51.040;3.684;2023-04-06T07:45:37;5.50;;;4.40;;
36709;SDS011;22694;51.040;3.684;2023-04-06T07:48:03;5.50;;;4.78;;
36709;SDS011;22694;51.040;3.684;2023-04-06T07:50:29;5.60;;;4.10;;
36709;SDS011;22694;51.040;3.684;2023-04-06T07:52:54;6.82;;;4.60;;
36709;SDS011;22694;51.040;3.684;2023-04-06T07:55:20;7.22;;;4.43;;
36709;SDS011;22694;51.040;3.684;2023-04-06T07:57:46;4.38;;;3.97;;
36709;SDS011;22694;51.040;3.684;2023-04-06T08:00:12;3.88;;;3.33;;
36709;SDS011;22694;51.040;3.684;2023-04-06T08:02:38;5.63;;;3.63;;
36709;SDS011;22694;51.040;3.684;2023-04-06T08:05:04;4.32;;;3.92;;
36709;SDS011;22694;51.040;3.684;2023-04-06T08:07:30;4.97;;;3.40;;
36709;SDS011;22694;51.040;3.684;2023-04-06T08:09:56;4.60;;;3.80;;
36709;SDS011;22694;51.040;3.684;2023-04-06T08:12:22;5.00;;;3.38;;
36709;SDS011;22694;51.040;3.684;2023-04-06T08:14:47;4.05;;;3.25;;
36709;SDS011;22694;51.040;3.684;2023-04-06T08:17:13;5.20;;;3.45;;
36709;SDS011;22694;51.040;3.684;2023-04-06T08:19:39;4.13;;;3.55;;
36709;SDS011;22694;51.040;3.684;2023-04-06T08:22:09;7.07;;;3.67;;
36709;SDS011;22694;51.040;3.684;2023-04-06T08:24:35;5.05;;;3.70;;
36709;SDS011;22694;51.040;3.684;2023-04-06T08:27:00;4.22;;;3.60;;
36709;SDS011;22694;51.040;3.684;2023-04-06T08:29:26;4.95;;;3.25;;
36709;SDS011;22694;51.040;3.684;2023-04-06T08:31:52;4.28;;;3.20;;
36709;SDS011;22694;51.040;3.684;2023-04-06T08:34:17;3.38;;;3.00;;
36709;SDS011;22694;51.040;3.684;2023-04-06T08:36:43;4.70;;;3.78;;
36709;SDS011;22694;51.040;3.684;2023-04-06T08:39:10;3.33;;;3.03;;
36709;SDS011;22694;51.040;3.684;2023-04-06T08:41:36;3.85;;;3.05;;
36709;SDS011;22694;51.040;3.684;2023-04-06T08:44:01;3.35;;;3.03;;
36709;SDS011;22694;51.040;3.684;2023-04-06T08:46:28;3.83;;;3.40;;
36709;SDS011;22694;51.040;3.684;2023-04-06T08:48:56;3.92;;;3.47;;
36709;SDS011;22694;51.040;3.684;2023-04-06T08:51:23;3.92;;;3.58;;
36709;SDS011;22694;51.040;3.684;2023-04-06T08:53:55;4.20;;;3.53;;
36709;SDS011;22694;51.040;3.684;2023-04-06T08:56:23;6.35;;;3.85;;
36709;SDS011;22694;51.040;3.684;2023-04-06T08:58:50;5.90;;;3.67;;
36709;SDS011;22694;51.040;3.684;2023-04-06T09:01:17;4.53;;;3.80;;
36709;SDS011;22694;51.040;3.684;2023-04-06T09:03:46;4.72;;;3.60;;
36709;SDS011;22694;51.040;3.684;2023-04-06T09:06:13;3.33;;;2.83;;
36709;SDS011;22694;51.040;3.684;2023-04-06T09:08:39;3.67;;;2.92;;
36709;SDS011;22694;51.040;3.684;2023-04-06T09:11:06;3.65;;;2.55;;
36709;SDS011;22694;51.040;3.684;2023-04-06T09:13:52;3.42;;;2.95;;
36709;SDS011;22694;51.040;3.684;2023-04-06T09:16:19;3.33;;;2.70;;
36709;SDS011;22694;51.040;3.684;2023-04-06T09:18:45;3.40;;;2.47;;
36709;SDS011;22694;51.040;3.684;2023-04-06T09:21:11;5.10;;;2.92;;
36709;SDS011;22694;51.040;3.684;2023-04-06T09:23:38;4.47;;;2.88;;
36709;SDS011;22694;51.040;3.684;2023-04-06T09:26:08;2.83;;;1.98;;
36709;SDS011;22694;51.040;3.684;2023-04-06T09:33:37;4.88;;;3.03;;
36709;SDS011;22694;51.040;3.684;2023-04-06T09:36:05;3.90;;;2.72;;
36709;SDS011;22694;51.040;3.684;2023-04-06T09:38:31;4.97;;;2.70;;
36709;SDS011;22694;51.040;3.684;2023-04-06T09:40:57;10.88;;;2.97;;
36709;SDS011;22694;51.040;3.684;2023-04-06T09:43:23;5.90;;;2.95;;
36709;SDS011;22694;51.040;3.684;2023-04-06T09:45:52;4.03;;;2.92;;
36709;SDS011;22694;51.040;3.684;2023-04-06T09:48:19;3.80;;;3.10;;
36709;SDS011;22694;51.040;3.684;2023-04-06T09:50:49;4.15;;;2.78;;
36709;SDS011;22694;51.040;3.684;2023-04-06T09:53:18;3.67;;;3.17;;
36709;SDS011;22694;51.040;3.684;2023-04-06T09:55:45;4.25;;;3.17;;
36709;SDS011;22694;51.040;3.684;2023-04-06T09:58:15;4.80;;;3.40;;
36709;SDS011;22694;51.040;3.684;2023-04-06T10:06:11;4.53;;;3.33;;
36709;SDS011;22694;51.040;3.684;2023-04-06T10:08:40;4.80;;;2.97;;
36709;SDS011;22694;51.040;3.684;2023-04-06T10:11:10;8.02;;;3.53;;
36709;SDS011;22694;51.040;3.684;2023-04-06T10:13:36;3.72;;;3.35;;
36709;SDS011;22694;51.040;3.684;2023-04-06T10:16:02;6.95;;;3.83;;
36709;SDS011;22694;51.040;3.684;2023-04-06T10:18:30;5.20;;;3.70;;
36709;SDS011;22694;51.040;3.684;2023-04-06T10:20:57;4.13;;;3.67;;
36709;SDS011;22694;51.040;3.684;2023-04-06T10:26:16;4.28;;;3.70;;
36709;SDS011;22694;51.040;3.684;2023-04-06T10:28:45;4.82;;;3.70;;
36709;SDS011;22694;51.040;3.684;2023-04-06T10:31:12;5.20;;;3.72;;
36709;SDS011;22694;51.040;3.684;2023-04-06T10:33:38;4.28;;;3.78;;
36709;SDS011;22694;51.040;3.684;2023-04-06T10:36:21;4.35;;;3.47;;
36709;SDS011;22694;51.040;3.684;2023-04-06T10:38:53;3.93;;;3.47;;
36709;SDS011;22694;51.040;3.684;2023-04-06T10:41:23;3.63;;;3.33;;
36709;SDS011;22694;51.040;3.684;2023-04-06T10:43:56;3.75;;;3.40;;
36709;SDS011;22694;51.040;3.684;2023-04-06T10:46:26;4.80;;;3.40;;
36709;SDS011;22694;51.040;3.684;2023-04-06T10:48:52;3.45;;;3.15;;
36709;SDS011;22694;51.040;3.684;2023-04-06T10:51:18;3.78;;;3.20;;
36709;SDS011;22694;51.040;3.684;2023-04-06T10:53:48;4.22;;;3.20;;
36709;SDS011;22694;51.040;3.684;2023-04-06T10:56:15;3.90;;;3.20;;
36709;SDS011;22694;51.040;3.684;2023-04-06T10:58:46;4.70;;;3.85;;
36709;SDS011;22694;51.040;3.684;2023-04-06T11:01:16;4.15;;;3.67;;
36709;SDS011;22694;51.040;3.684;2023-04-06T11:03:43;3.58;;;3.28;;
36709;SDS011;22694;51.040;3.684;2023-04-06T11:06:10;5.20;;;3.50;;
36709;SDS011;22694;51.040;3.684;2023-04-06T11:08:36;3.35;;;2.80;;
36709;SDS011;22694;51.040;3.684;2023-04-06T11:11:13;3.80;;;3.45;;
36709;SDS011;22694;51.040;3.684;2023-04-06T11:13:44;3.70;;;3.35;;
36709;SDS011;22694;51.040;3.684;2023-04-06T11:16:12;4.20;;;3.20;;
36709;SDS011;22694;51.040;3.684;2023-04-06T11:18:55;3.47;;;3.05;;
36709;SDS011;22694;51.040;3.684;2023-04-06T11:21:37;3.50;;;3.20;;
36709;SDS011;22694;51.040;3.684;2023-04-06T11:26:45;3.22;;;2.92;;
36709;SDS011;22694;51.040;3.684;2023-04-06T11:29:12;4.78;;;3.35;;
36709;SDS011;22694;51.040;3.684;2023-04-06T11:31:40;4.50;;;3.33;;
36709;SDS011;22694;51.040;3.684;2023-04-06T11:34:26;3.88;;;2.88;;
36709;SDS011;22694;51.040;3.684;2023-04-06T11:36:56;3.25;;;2.72;;
36709;SDS011;22694;51.040;3.684;2023-04-06T11:39:24;4.13;;;3.05;;
36709;SDS011;22694;51.040;3.684;2023-04-06T11:41:51;3.80;;;2.78;;
36709;SDS011;22694;51.040;3.684;2023-04-06T11:44:35;3.25;;;2.78;;
36709;SDS011;22694;51.040;3.684;2023-04-06T11:47:02;3.30;;;3.00;;
36709;SDS011;22694;51.040;3.684;2023-04-06T11:49:29;3.25;;;2.88;;
36709;SDS011;22694;51.040;3.684;2023-04-06T11:51:56;3.20;;;2.88;;
36709;SDS011;22694;51.040;3.684;2023-04-06T11:54:35;2.97;;;2.60;;
36709;SDS011;22694;51.040;3.684;2023-04-06T11:57:02;3.05;;;2.53;;
36709;SDS011;22694;51.040;3.684;2023-04-06T11:59:29;3.53;;;2.88;;
36709;SDS011;22694;51.040;3.684;2023-04-06T12:01:56;3.20;;;2.60;;
36709;SDS011;22694;51.040;3.684;2023-04-06T12:04:22;3.65;;;2.63;;
36709;SDS011;22694;51.040;3.684;2023-04-06T12:06:48;2.70;;;2.50;;
36709;SDS011;22694;51.040;3.684;2023-04-06T12:09:14;2.95;;;2.58;;
36709;SDS011;22694;51.040;3.684;2023-04-06T12:11:40;4.38;;;2.72;;
36709;SDS011;22694;51.040;3.684;2023-04-06T12:14:06;2.92;;;2.72;;
36709;SDS011;22694;51.040;3.684;2023-04-06T12:16:32;3.00;;;2.80;;
36709;SDS011;22694;51.040;3.684;2023-04-06T12:18:59;2.53;;;2.33;;
36709;SDS011;22694;51.040;3.684;2023-04-06T12:21:26;2.60;;;2.40;;
36709;SDS011;22694;51.040;3.684;2023-04-06T12:23:53;3.10;;;2.88;;
36709;SDS011;22694;51.040;3.684;2023-04-06T12:26:19;4.88;;;2.40;;
36709;SDS011;22694;51.040;3.684;2023-04-06T12:28:45;3.38;;;2.60;;
36709;SDS011;22694;51.040;3.684;2023-04-06T12:31:15;3.40;;;3.10;;
36709;SDS011;22694;51.040;3.684;2023-04-06T12:33:47;4.63;;;2.45;;
36709;SDS011;22694;51.040;3.684;2023-04-06T12:36:19;2.55;;;2.35;;
36709;SDS011;22694;51.040;3.684;2023-04-06T12:38:49;2.50;;;2.30;;
36709;SDS011;22694;51.040;3.684;2023-04-06T12:41:16;2.75;;;2.50;;
36709;SDS011;22694;51.040;3.684;2023-04-06T12:43:42;2.72;;;2.53;;
36709;SDS011;22694;51.040;3.684;2023-04-06T12:46:08;2.45;;;2.15;;
36709;SDS011;22694;51.040;3.684;2023-04-06T12:48:35;2.85;;;2.38;;
36709;SDS011;22694;51.040;3.684;2023-04-06T12:51:02;2.70;;;2.10;;
36709;SDS011;22694;51.040;3.684;2023-04-06T12:53:28;2.45;;;2.25;;
36709;SDS011;22694;51.040;3.684;2023-04-06T12:55:55;2.60;;;2.40;;
36709;SDS011;22694;51.040;3.684;2023-04-06T12:58:22;2.38;;;2.17;;
36709;SDS011;22694;51.040;3.684;2023-04-06T13:00:48;2.47;;;2.22;;
36709;SDS011;22694;51.040;3.684;2023-04-06T13:03:20;3.05;;;2.17;;
36709;SDS011;22694;51.040;3.684;2023-04-06T13:05:47;2.03;;;1.92;;
36709;SDS011;22694;51.040;3.684;2023-04-06T13:08:14;3.55;;;2.63;;
36709;SDS011;22694;51.040;3.684;2023-04-06T13:10:43;2.25;;;2.03;;
36709;SDS011;22694;51.040;3.684;2023-04-06T13:13:09;3.10;;;2.40;;
36709;SDS011;22694;51.040;3.684;2023-04-06T13:15:35;3.15;;;2.45;;
36709;SDS011;22694;51.040;3.684;2023-04-06T13:18:01;2.67;;;2.47;;
36709;SDS011;22694;51.040;3.684;2023-04-06T13:20:27;3.22;;;2.92;;
36709;SDS011;22694;51.040;3.684;2023-04-06T13:22:53;3.13;;;2.83;;
36709;SDS011;22694;51.040;3.684;2023-04-06T13:25:19;2.75;;;2.55;;
36709;SDS011;22694;51.040;3.684;2023-04-06T13:27:45;2.70;;;2.50;;
36709;SDS011;22694;51.040;3.684;2023-04-06T13:30:12;3.85;;;3.33;;
36709;SDS011;22694;51.040;3.684;2023-04-06T13:32:39;3.55;;;3.25;;
36709;SDS011;22694;51.040;3.684;2023-04-06T13:35:05;3.28;;;2.92;;
36709;SDS011;22694;51.040;3.684;2023-04-06T13:37:31;4.15;;;2.90;;
36709;SDS011;22694;51.040;3.684;2023-04-06T13:39:57;3.30;;;2.97;;
36709;SDS011;22694;51.040;3.684;2023-04-06T13:42:23;2.85;;;2.60;;
36709;SDS011;22694;51.040;3.684;2023-04-06T13:44:48;3.00;;;2.80;;
36709;SDS011;22694;51.040;3.684;2023-04-06T13:47:16;3.38;;;3.08;;
36709;SDS011;22694;51.040;3.684;2023-04-06T13:49:42;3.15;;;2.80;;
36709;SDS011;22694;51.040;3.684;2023-04-06T13:52:08;2.70;;;2.50;;
36709;SDS011;22694;51.040;3.684;2023-04-06T13:54:35;2.90;;;2.63;;
36709;SDS011;22694;51.040;3.684;2023-04-06T13:57:01;3.00;;;2.70;;
36709;SDS011;22694;51.040;3.684;2023-04-06T13:59:45;2.83;;;2.63;;
36709;SDS011;22694;51.040;3.684;2023-04-06T14:02:11;3.20;;;2.90;;
36709;SDS011;22694;51.040;3.684;2023-04-06T14:04:36;3.33;;;2.95;;
36709;SDS011;22694;51.040;3.684;2023-04-06T14:07:03;3.28;;;2.95;;
36709;SDS011;22694;51.040;3.684;2023-04-06T14:09:29;3.30;;;3.00;;
36709;SDS011;22694;51.040;3.684;2023-04-06T14:11:55;2.97;;;2.70;;
36709;SDS011;22694;51.040;3.684;2023-04-06T14:14:21;3.17;;;2.60;;
36709;SDS011;22694;51.040;3.684;2023-04-06T14:16:48;3.00;;;2.78;;
36709;SDS011;22694;51.040;3.684;2023-04-06T14:19:14;3.05;;;2.78;;
36709;SDS011;22694;51.040;3.684;2023-04-06T14:21:42;3.00;;;2.70;;
36709;SDS011;22694;51.040;3.684;2023-04-06T14:24:08;2.78;;;2.38;;
36709;SDS011;22694;51.040;3.684;2023-04-06T14:26:35;2.65;;;2.45;;
36709;SDS011;22694;51.040;3.684;2023-04-06T14:29:02;3.03;;;2.67;;
36709;SDS011;22694;51.040;3.684;2023-04-06T14:31:29;4.25;;;2.90;;
36709;SDS011;22694;51.040;3.684;2023-04-06T14:33:54;3.28;;;2.97;;
36709;SDS011;22694;51.040;3.684;2023-04-06T14:36:20;3.20;;;2.85;;
36709;SDS011;22694;51.040;3.684;2023-04-06T14:38:46;3.78;;;2.90;;
36709;SDS011;22694;51.040;3.684;2023-04-06T14:41:15;4.38;;;2.15;;
36709;SDS011;22694;51.040;3.684;2023-04-06T14:43:42;4.10;;;2.75;;
36709;SDS011;22694;51.040;3.684;2023-04-06T14:46:08;4.13;;;2.60;;
36709;SDS011;22694;51.040;3.684;2023-04-06T14:48:34;4.47;;;3.03;;
36709;SDS011;22694;51.040;3.684;2023-04-06T14:51:00;3.15;;;2.38;;
36709;SDS011;22694;51.040;3.684;2023-04-06T14:53:26;3.05;;;2.75;;
36709;SDS011;22694;51.040;3.684;2023-04-06T14:55:52;3.67;;;2.47;;